Data for 03/04/2009

Time Sea-Level Adjusted Pressure Absolute Pressure Temperature Relative Humidity Dew Point   
(mb) (inHg) (mb) (inHg) (C) (F) (%) (C) (F)
00:05 1010 29.83 839 24.78 0.2 32.3 85 -2 28.4
00:10 1010 29.83 839 24.78 -0 31.9 86 -2.2 28.1
00:15 1010 29.83 839 24.78 0 32 84 -2.3 27.8
00:20 1010 29.83 839 24.78 0.1 32.2 84 -2.2 28
00:25 1010 29.83 839 24.78 0 32.1 84 -2.4 27.8
00:30 1010 29.83 839 24.78 -0.1 31.9 86 -2.2 28.1
00:35 1010 29.83 839 24.78 -0.5 31.2 86 -2.5 27.5
00:40 1010 29.83 839 24.78 -0.3 31.4 85 -2.6 27.2
00:45 1010 29.83 839 24.78 -0.1 31.8 82 -2.9 26.9
00:50 1010 29.83 839 24.78 0.1 32.2 80 -2.9 26.8
00:55 1010 29.83 839 24.78 0.2 32.3 82 -2.6 27.4
01:00 1010 29.83 839 24.78 -0 31.9 83 -2.6 27.3
01:05 1010 29.83 839 24.78 -0.1 31.9 83 -2.6 27.4
01:10 1010 29.83 839 24.78 -0.1 31.7 84 -2.6 27.4
01:15 1010 29.83 839 24.78 -0.2 31.6 84 -2.6 27.3
01:20 1010 29.83 839 24.78 -0.1 31.7 84 -2.6 27.4
01:25 1010 29.83 839 24.78 -0.1 31.9 83 -2.6 27.3
01:30 1010 29.83 839 24.78 -0 32 83 -2.6 27.4
01:35 1010 29.83 840 24.81 -0 31.9 83 -2.6 27.4
01:40 1010 29.83 840 24.81 -0.1 31.9 83 -2.6 27.4
01:45 1011 29.85 840 24.81 -0 31.9 84 -2.4 27.7
01:50 1011 29.85 840 24.81 -0.1 31.8 84 -2.5 27.6
01:55 1011 29.85 840 24.81 0 32 84 -2.4 27.7
02:00 1011 29.85 840 24.81 0.2 32.3 85 -2.1 28.3
02:05 1010 29.83 840 24.81 0.2 32.3 87 -1.8 28.8
02:10 1010 29.83 840 24.81 0.2 32.4 87 -1.7 29
02:15 1010 29.83 840 24.81 0.2 32.4 87 -1.7 29
02:20 1011 29.85 840 24.81 0.1 32.2 89 -1.5 29.3
02:25 1011 29.85 840 24.81 0.1 32.2 90 -1.4 29.6
02:30 1011 29.85 840 24.81 0.1 32.1 90 -1.4 29.6
02:35 1011 29.85 840 24.81 0 32.1 90 -1.4 29.5
02:40 1011 29.85 840 24.81 -0.1 31.8 91 -1.4 29.5
02:45 1011 29.85 840 24.81 -0.1 31.7 91 -1.5 29.3
02:50 1011 29.85 840 24.81 -0.2 31.7 91 -1.5 29.2
02:55 1010 29.83 840 24.81 -0.5 31.1 92 -1.7 28.9
03:00 1010 29.83 840 24.81 -0.8 30.5 93 -1.8 28.7
03:05 1010 29.83 840 24.81 -0.9 30.4 93 -1.9 28.5
03:10 1010 29.83 840 24.81 -1.1 30 94 -2 28.3
03:15 1010 29.83 840 24.81 -1.2 29.9 93 -2.2 28
03:20 1010 29.83 839 24.78 -1.1 30 91 -2.4 27.8
03:25 1010 29.83 839 24.78 -1.1 30.1 91 -2.3 27.9
03:30 1010 29.83 839 24.78 -1.1 30.1 92 -2.3 27.9
03:35 1010 29.83 839 24.78 -1 30.1 90 -2.5 27.6
03:40 1010 29.83 839 24.78 -1.1 30.1 90 -2.4 27.6
03:45 1010 29.83 839 24.78 -1.2 29.8 91 -2.5 27.5
03:50 1010 29.83 839 24.78 -1.3 29.7 91 -2.5 27.5
03:55 1010 29.83 839 24.78 -1.1 29.9 91 -2.4 27.7
04:00 1010 29.83 839 24.78 -1.2 29.8 92 -2.3 27.9
04:05 1010 29.83 839 24.78 -1.5 29.3 95 -2.2 28
04:10 1010 29.83 839 24.78 -1.6 29.1 95 -2.3 27.9
04:15 1010 29.83 839 24.78 -1.5 29.3 95 -2.2 28.1
04:20 1010 29.83 839 24.78 -1.4 29.4 96 -2 28.4
04:25 1010 29.83 839 24.78 -1.3 29.7 95 -1.9 28.6
04:30 1010 29.83 839 24.78 -1.2 29.9 93 -2.1 28.2
04:35 1010 29.83 839 24.78 -1.3 29.7 94 -2.1 28.3
04:40 1010 29.83 839 24.78 -1.4 29.5 94 -2.3 27.9
04:45 1010 29.83 839 24.78 -1.6 29.1 94 -2.4 27.6
04:50 1010 29.83 839 24.78 -1.6 29.2 93 -2.5 27.5
04:55 1010 29.83 839 24.78 -1.4 29.4 92 -2.6 27.4
05:00 1010 29.83 839 24.78 -1.4 29.5 91 -2.6 27.3
05:05 1010 29.83 839 24.78 -1.4 29.5 91 -2.7 27.2
05:10 1010 29.83 839 24.78 -1.4 29.5 91 -2.8 27
05:15 1010 29.83 839 24.78 -1.3 29.6 90 -2.7 27.1
05:20 1010 29.83 839 24.78 -1.4 29.5 90 -2.9 26.8
05:25 1010 29.83 839 24.78 -1.4 29.5 89 -2.9 26.8
05:30 1010 29.83 839 24.78 -1.2 29.9 88 -2.9 26.7
05:35 1010 29.83 839 24.78 -1 30.3 87 -2.9 26.7
05:40 1010 29.83 839 24.78 -0.8 30.6 86 -2.9 26.8
05:45 1010 29.83 839 24.78 -0.8 30.5 86 -2.8 26.9
05:50 1010 29.83 839 24.78 -0.9 30.4 86 -2.9 26.8
05:55 1010 29.83 839 24.78 -0.8 30.6 85 -2.9 26.7
06:00 1010 29.83 839 24.78 -0.7 30.8 85 -2.9 26.7
06:05 1010 29.83 839 24.78 -0.5 31 84 -3 26.7
06:10 1010 29.83 839 24.78 -0.5 31.1 84 -2.8 26.9
06:15 1009 29.8 839 24.78 -0.5 31 85 -2.8 27
06:20 1009 29.8 839 24.78 -0.6 30.9 85 -2.8 26.9
06:25 1009 29.8 839 24.78 -0.7 30.8 86 -2.8 26.9
06:30 1009 29.8 838 24.75 -0.7 30.7 86 -2.8 27
06:35 1009 29.8 838 24.75 -0.7 30.8 86 -2.8 27
06:40 1009 29.8 838 24.75 -0.7 30.8 86 -2.8 27
06:45 1009 29.8 838 24.75 -0.6 30.9 86 -2.7 27.1
06:50 1009 29.8 838 24.75 -0.7 30.7 86 -2.7 27.1
06:55 1009 29.8 838 24.75 -0.7 30.8 85 -2.8 26.9
07:00 1009 29.8 838 24.75 -0.6 31 84 -2.9 26.8
07:05 1009 29.8 838 24.75 -0.5 31.2 84 -2.9 26.9
07:10 1009 29.8 838 24.75 -0.4 31.2 84 -2.9 26.8
07:15 1009 29.8 838 24.75 -0.5 31.1 84 -2.8 26.9
07:20 1009 29.8 838 24.75 -0.4 31.2 83 -3 26.5
07:25 1009 29.8 838 24.75 -0.2 31.7 81 -3 26.6
07:30 1009 29.8 838 24.75 -0.1 31.8 82 -2.9 26.8
07:35 1009 29.8 838 24.75 0 32 80 -3 26.5
07:40 1009 29.8 838 24.75 0.2 32.3 80 -2.9 26.8
07:45 1009 29.8 838 24.75 0.2 32.3 81 -2.8 27
07:50 1009 29.8 838 24.75 0.1 32.3 81 -2.8 27
07:55 1009 29.8 838 24.75 0.2 32.4 80 -2.9 26.8
08:00 1009 29.8 838 24.75 0.4 32.6 80 -2.8 27
08:05 1009 29.8 838 24.75 0.3 32.5 81 -2.6 27.4
08:10 1009 29.8 838 24.75 0.3 32.5 81 -2.6 27.3
08:15 1009 29.8 838 24.75 0.3 32.6 81 -2.5 27.4
08:20 1009 29.8 838 24.75 0.5 32.9 80 -2.5 27.5
08:25 1009 29.8 838 24.75 0.7 33.3 82 -2.1 28.3
08:30 1009 29.8 838 24.75 0.8 33.5 82 -1.8 28.7
08:35 1009 29.8 838 24.75 0.8 33.4 82 -1.9 28.5
08:40 1009 29.8 838 24.75 0.8 33.4 83 -1.9 28.6
08:45 1009 29.8 838 24.75 0.6 33.1 83 -1.9 28.5
08:50 1009 29.8 838 24.75 0.6 33.1 83 -1.9 28.5
08:55 1009 29.8 838 24.75 0.5 32.9 84 -1.9 28.7
09:00 1009 29.8 838 24.75 0 32 87 -2 28.5
09:05 1009 29.8 838 24.75 -0.1 31.9 86 -2.1 28.2
09:10 1009 29.8 838 24.75 0.4 32.7 85 -1.9 28.6
09:15 1009 29.8 838 24.75 0.5 32.9 84 -1.9 28.6
09:20 1009 29.8 838 24.75 0.7 33.3 84 -1.7 28.9
09:25 1009 29.8 838 24.75 0.8 33.5 84 -1.6 29
09:30 1009 29.8 838 24.75 0.9 33.6 84 -1.5 29.3
09:35 1009 29.8 838 24.75 1.2 34.2 82 -1.5 29.4
09:40 1008 29.77 838 24.75 1.1 34 83 -1.5 29.3
09:45 1008 29.77 838 24.75 1.2 34.1 81 -1.7 28.9
09:50 1008 29.77 837 24.72 1.3 34.3 80 -1.7 28.9
09:55 1008 29.77 837 24.72 1.2 34.1 81 -1.7 29
10:00 1008 29.77 837 24.72 1.3 34.3 82 -1.5 29.3
10:05 1008 29.77 837 24.72 1.2 34.2 82 -1.4 29.4
10:10 1008 29.77 837 24.72 1.3 34.3 82 -1.5 29.3
10:15 1008 29.77 837 24.72 1.4 34.6 79 -1.7 28.9
10:20 1008 29.77 837 24.72 1.6 34.9 79 -1.7 29
10:25 1008 29.77 837 24.72 2 35.5 80 -1.2 29.9
10:30 1008 29.77 837 24.72 2.8 37.1 76 -1 30.1
10:35 1008 29.77 837 24.72 3.3 37.9 70 -1.7 28.9
10:40 1008 29.77 837 24.72 3.7 38.6 71 -1 30.2
10:45 1007 29.74 837 24.72 4 39.1 70 -1 30.1
10:50 1007 29.74 837 24.72 3.9 39 73 -0.5 31
10:55 1007 29.74 836 24.69 3.5 38.2 74 -0.8 30.6
11:00 1007 29.74 836 24.69 3 37.5 73 -1.3 29.7
11:05 1007 29.74 836 24.69 3.1 37.6 75 -0.9 30.4
11:10 1007 29.74 836 24.69 3.1 37.6 81 0.1 32.2
11:15 1007 29.74 836 24.69 2.9 37.3 80 -0.2 31.7
11:20 1007 29.74 836 24.69 3.1 37.6 78 -0.4 31.3
11:25 1007 29.74 836 24.69 3.2 37.7 78 -0.4 31.4
11:30 1007 29.74 836 24.69 3 37.4 76 -0.9 30.4
11:35 1007 29.74 836 24.69 2.7 36.9 77 -1 30.2
11:40 1007 29.74 836 24.69 2.9 37.3 78 -0.6 30.9
11:45 1007 29.74 836 24.69 2.9 37.3 78 -0.5 31.1
11:50 1007 29.74 836 24.69 2.7 36.9 80 -0.4 31.4
11:55 1007 29.74 836 24.69 2.6 36.7 79 -0.7 30.7
12:00 1007 29.74 836 24.69 2.5 36.4 80 -0.7 30.7
12:05 1007 29.74 836 24.69 2.4 36.3 82 -0.4 31.2
12:10 1007 29.74 836 24.69 2.1 35.7 82 -0.6 30.8
12:15 1007 29.74 836 24.69 1.6 34.8 86 -0.5 31.1
12:20 1007 29.74 836 24.69 1.3 34.3 86 -0.7 30.7
12:25 1007 29.74 836 24.69 1.2 34.2 88 -0.6 30.9
12:30 1007 29.74 836 24.69 1.2 34.2 89 -0.3 31.4
12:35 1007 29.74 836 24.69 1.2 34.1 90 -0.3 31.4
12:40 1007 29.74 836 24.69 1.4 34.5 89 -0.2 31.6
12:45 1007 29.74 836 24.69 1.7 35.1 87 -0.2 31.7
12:50 1006 29.71 836 24.69 1.7 35.1 89 0.1 32.1
12:55 1006 29.71 836 24.69 1.7 35.1 88 -0.1 31.9
13:00 1006 29.71 836 24.69 1.8 35.3 86 -0.2 31.6
13:05 1006 29.71 835 24.66 1.9 35.4 88 0.1 32.1
13:10 1006 29.71 835 24.66 1.9 35.4 88 0.1 32.2
13:15 1006 29.71 835 24.66 1.7 35.1 87 -0.2 31.6
13:20 1006 29.71 835 24.66 1.7 35 89 0 32
13:25 1006 29.71 835 24.66 1.4 34.6 90 -0.1 31.9
13:30 1006 29.71 835 24.66 1.4 34.4 91 -0 32
13:35 1006 29.71 835 24.66 1.3 34.4 91 -0 32
13:40 1006 29.71 835 24.66 1.4 34.5 90 -0 31.9
13:45 1006 29.71 835 24.66 1.4 34.5 90 -0 32
13:50 1006 29.71 835 24.66 1.5 34.6 91 0.1 32.2
13:55 1006 29.71 835 24.66 1.5 34.8 91 0.2 32.4
14:00 1006 29.71 835 24.66 1.6 34.8 90 0.1 32.3
14:05 1006 29.71 835 24.66 1.3 34.4 91 0.1 32.1
14:10 1006 29.71 835 24.66 1.1 34.1 92 0.1 32.1
14:15 1006 29.71 835 24.66 1.1 33.9 93 0 32
14:20 1006 29.71 835 24.66 1 33.8 93 0 32
14:25 1006 29.71 835 24.66 1.1 34 93 0 32.1
14:30 1006 29.71 835 24.66 1.5 34.8 91 0.2 32.4
14:35 1005 29.68 835 24.66 1.6 34.9 92 0.4 32.7
14:40 1005 29.68 835 24.66 1.6 34.9 92 0.4 32.7
14:45 1005 29.68 835 24.66 1.3 34.3 93 0.3 32.6
14:50 1005 29.68 835 24.66 1.1 34 94 0.3 32.5
14:55 1006 29.71 835 24.66 1.2 34.1 94 0.3 32.6
15:00 1006 29.71 835 24.66 1.2 34.2 94 0.3 32.6
15:05 1006 29.71 836 24.69 1.2 34.2 93 0.3 32.5
15:10 1007 29.74 836 24.69 1 33.7 94 0.2 32.3
15:15 1007 29.74 836 24.69 0.7 33.3 95 0.1 32.1
15:20 1007 29.74 836 24.69 0.6 33.1 96 0 32.1
15:25 1006 29.71 836 24.69 0.6 33.1 96 0 32.1
15:30 1006 29.71 836 24.69 0.7 33.2 96 0.1 32.2
15:35 1006 29.71 836 24.69 0.7 33.3 96 0.1 32.2
15:40 1006 29.71 836 24.69 0.8 33.4 96 0.2 32.3
15:45 1006 29.71 836 24.69 0.9 33.7 95 0.3 32.5
15:50 1006 29.71 836 24.69 1.1 34 94 0.3 32.5
15:55 1006 29.71 836 24.69 1.1 34 94 0.2 32.4
16:00 1006 29.71 836 24.69 1.1 34 94 0.2 32.3
16:05 1006 29.71 836 24.69 1.2 34.2 93 0.3 32.5
16:10 1006 29.71 835 24.66 1.4 34.6 92 0.3 32.5
16:15 1006 29.71 835 24.66 1.7 35 91 0.4 32.6
16:20 1006 29.71 835 24.66 1.6 34.8 91 0.2 32.4
16:25 1006 29.71 835 24.66 1.3 34.3 93 0.2 32.4
16:30 1006 29.71 835 24.66 1.3 34.4 92 0.2 32.3
16:35 1006 29.71 835 24.66 1.1 33.9 93 0.1 32.1
16:40 1006 29.71 835 24.66 1.2 34.1 93 0.2 32.3
16:45 1006 29.71 835 24.66 1.3 34.3 93 0.2 32.4
16:50 1006 29.71 835 24.66 1.2 34.2 93 0.2 32.3
16:55 1006 29.71 835 24.66 1.1 33.9 93 0.1 32.2
17:00 1006 29.71 835 24.66 1 33.7 94 0.1 32.1
17:05 1006 29.71 835 24.66 0.8 33.5 95 0.1 32.1
17:10 1006 29.71 835 24.66 0.8 33.4 95 0.1 32.2
17:15 1006 29.71 835 24.66 0.6 33.1 96 0 32.1
17:20 1006 29.71 835 24.66 0.7 33.3 95 0.1 32.1
17:25 1006 29.71 835 24.66 0.8 33.4 95 0.1 32.1
17:30 1006 29.71 835 24.66 0.6 33.1 95 -0 32
17:35 1006 29.71 835 24.66 0.6 33 96 0 32
17:40 1006 29.71 835 24.66 0.5 32.9 96 -0 32
17:45 1006 29.71 835 24.66 0.4 32.7 97 -0.1 31.8
17:50 1006 29.71 835 24.66 0.4 32.7 97 0 32
17:55 1006 29.71 835 24.66 0.4 32.7 98 0 32.1
18:00 1006 29.71 835 24.66 0.5 33 98 0.2 32.3
18:05 1006 29.71 835 24.66 0.7 33.2 97 0.2 32.3
18:10 1006 29.71 835 24.66 0.6 33.1 97 0.1 32.3
18:15 1006 29.71 835 24.66 0.6 33 96 0 32.1
18:20 1006 29.71 835 24.66 0.4 32.7 96 -0.2 31.7
18:25 1006 29.71 835 24.66 0.2 32.3 97 -0.3 31.4
18:30 1006 29.71 835 24.66 0.1 32.1 97 -0.3 31.4
18:35 1006 29.71 836 24.69 0.1 32.1 97 -0.3 31.4
18:40 1006 29.71 836 24.69 0.1 32.1 98 -0.2 31.6
18:45 1007 29.74 836 24.69 0 32.1 98 -0.2 31.7
18:50 1007 29.74 836 24.69 0.1 32.1 98 -0.2 31.7
18:55 1007 29.74 836 24.69 0.1 32.1 98 -0.1 31.7
19:00 1007 29.74 836 24.69 0.1 32.1 98 -0.2 31.7
19:05 1007 29.74 836 24.69 0.1 32.1 99 -0.1 31.8
19:10 1007 29.74 836 24.69 0.1 32.2 99 -0.1 31.8
19:15 1007 29.74 837 24.72 0.1 32.1 99 -0.1 31.8
19:20 1007 29.74 837 24.72 0.1 32.1 99 -0.1 31.8
19:25 1008 29.77 837 24.72 0.1 32.1 99 -0.1 31.8
19:30 1008 29.77 837 24.72 0.1 32.1 99 -0.1 31.8
19:35 1008 29.77 837 24.72 0 32 99 -0.1 31.8
19:40 1008 29.77 837 24.72 0 32.1 99 -0.1 31.8
19:45 1008 29.77 837 24.72 0 32.1 99 -0.1 31.8
19:50 1008 29.77 837 24.72 0 32 99 -0.1 31.8
19:55 1008 29.77 837 24.72 -0 31.9 99 -0.2 31.7
20:00 1008 29.77 837 24.72 -0.1 31.9 99 -0.2 31.7
20:05 1008 29.77 837 24.72 -0.1 31.8 99 -0.2 31.6
20:10 1008 29.77 837 24.72 -0.1 31.8 99 -0.2 31.6
20:15 1008 29.77 837 24.72 -0.2 31.7 99 -0.3 31.5
20:20 1008 29.77 837 24.72 -0.2 31.7 99 -0.3 31.4
20:25 1008 29.77 837 24.72 -0.2 31.7 99 -0.4 31.4
20:30 1008 29.77 837 24.72 -0.2 31.6 99 -0.4 31.3
20:35 1008 29.77 837 24.72 -0.2 31.6 99 -0.4 31.2
20:40 1008 29.77 837 24.72 -0.3 31.5 99 -0.5 31.1
20:45 1008 29.77 837 24.72 -0.3 31.4 99 -0.5 31
20:50 1008 29.77 837 24.72 -0.4 31.3 98 -0.6 30.9
20:55 1008 29.77 837 24.72 -0.4 31.3 98 -0.6 30.8
21:00 1008 29.77 837 24.72 -0.4 31.3 98 -0.7 30.7
21:05 1008 29.77 837 24.72 -0.5 31.2 97 -0.8 30.5
21:10 1008 29.77 837 24.72 -0.5 31.1 97 -0.9 30.4
21:15 1008 29.77 837 24.72 -0.5 31.1 97 -0.9 30.4
21:20 1007 29.74 837 24.72 -0.4 31.3 97 -0.8 30.6
21:25 1008 29.77 837 24.72 -0.3 31.4 97 -0.7 30.7
21:30 1008 29.77 837 24.72 -0.3 31.5 97 -0.7 30.8
21:35 1008 29.77 837 24.72 -0.3 31.5 97 -0.7 30.7
21:40 1008 29.77 837 24.72 -0.3 31.4 96 -0.8 30.5
21:45 1008 29.77 837 24.72 -0.4 31.4 96 -0.9 30.4
21:50 1008 29.77 837 24.72 -0.4 31.3 96 -1 30.2
21:55 1008 29.77 837 24.72 -0.5 31.1 96 -1.1 30.1
22:00 1008 29.77 837 24.72 -0.5 31.1 96 -1.1 30
22:05 1007 29.74 837 24.72 -0.6 30.9 95 -1.3 29.7
22:10 1007 29.74 837 24.72 -0.8 30.6 95 -1.4 29.4
22:15 1007 29.74 837 24.72 -1 30.2 95 -1.7 29
22:20 1007 29.74 837 24.72 -1.2 29.9 95 -1.8 28.7
22:25 1007 29.74 837 24.72 -1.2 29.8 95 -2 28.5
22:30 1007 29.74 837 24.72 -1.3 29.7 95 -2 28.4
22:35 1007 29.74 836 24.69 -1.3 29.7 95 -2 28.4
22:40 1007 29.74 836 24.69 -1.3 29.7 94 -2.1 28.1
22:45 1007 29.74 836 24.69 -1.2 29.9 93 -2.2 28.1
22:50 1007 29.74 836 24.69 -1.2 29.9 93 -2.2 28.1
22:55 1007 29.74 836 24.69 -1.3 29.6 93 -2.3 27.8
23:00 1007 29.74 836 24.69 -1.5 29.4 94 -2.3 27.9
23:05 1007 29.74 837 24.72 -1.4 29.5 95 -2.1 28.3
23:10 1008 29.77 837 24.72 -1.3 29.7 95 -2 28.5
23:15 1008 29.77 837 24.72 -1.4 29.5 94 -2.2 28
23:20 1008 29.77 837 24.72 -1.5 29.3 94 -2.3 27.9
23:25 1008 29.77 837 24.72 -1.5 29.2 95 -2.2 28
23:30 1008 29.77 837 24.72 -1.4 29.4 95 -2.1 28.2
23:35 1008 29.77 837 24.72 -1.4 29.5 95 -2.1 28.2
23:40 1008 29.77 837 24.72 -1.3 29.6 93 -2.3 27.9
23:45 1008 29.77 837 24.72 -1.3 29.6 93 -2.3 27.8
23:50 1008 29.77 837 24.72 -1.3 29.7 92 -2.4 27.6
23:55 1008 29.77 837 24.72 -1.3 29.6 93 -2.4 27.7
24:00 1008 29.77 837 24.72 -1.5 29.2 94 -2.4 27.6